Weather reports worldwide

Advertisment
Stekenjokk, Sweden (2102): temperature & dewpoint: 04.07.2020 11:00:00 - 10.07.2020 11:00:00 (CEST)Stekenjokk, Sweden (2102): wind speed & gusts: 04.07.2020 11:00:00 - 10.07.2020 11:00:00 (CEST)Stekenjokk, Sweden (2102): wind direction: 04.07.2020 11:00:00 - 10.07.2020 11:00:00 (CEST)
Date & Time tt [°C] td [°C] ff [km/h] ff [kn] fx [km/h] fx [kn] dd
10.07.2020 11:00:00 - - - - - - -
10.07.2020 10:00:00 5,4 0,0 29 16 41 22 W
10.07.2020 09:00:00 5,2 0,6 26 14 41 22 W
10.07.2020 08:00:00 4,8 -0,4 27 15 36 19 W
10.07.2020 07:00:00 3,9 2,1 21 11 30 16 W
10.07.2020 06:00:00 3,5 2,0 21 12 29 15 WNW
10.07.2020 05:00:00 3,2 2,0 21 11 25 14 WNW
10.07.2020 04:00:00 3,2 2,5 19 10 28 15 WNW
10.07.2020 03:00:00 3,0 2,1 16 9 26 14 WNW
10.07.2020 02:00:00 2,5 1,8 21 11 32 17 WNW
10.07.2020 01:00:00 3,2 2,2 12 7 23 12 NW
10.07.2020 00:00:00 3,5 2,8 13 7 29 15 WNW
09.07.2020 23:00:00 3,9 2,9 18 10 29 16 NW
09.07.2020 22:00:00 4,4 3,2 19 11 26 14 NW
09.07.2020 21:00:00 5,1 3,4 22 12 38 21 NW
09.07.2020 20:00:00 5,9 2,9 24 13 35 19 NW
09.07.2020 19:00:00 7,1 3,0 23 12 34 19 NW
09.07.2020 18:00:00 8,1 3,0 27 15 38 21 W
09.07.2020 17:00:00 8,7 2,7 25 13 41 22 W
09.07.2020 16:00:00 8,2 2,0 29 15 38 21 W
09.07.2020 15:00:00 7,7 0,9 30 16 41 22 W
09.07.2020 14:00:00 7,8 1,2 29 15 39 21 W
09.07.2020 13:00:00 7,2 1,5 23 12 35 19 W
09.07.2020 12:00:00 6,2 1,5 23 12 36 19 W
09.07.2020 11:00:00 5,3 1,8 17 9 31 17 WSW
09.07.2020 10:00:00 4,8 2,0 22 12 30 16 W
09.07.2020 09:00:00 4,1 1,6 22 12 - - W
09.07.2020 08:00:00 4,0 1,2 19 10 28 15 W
09.07.2020 07:00:00 3,5 0,0 18 10 37 20 WNW
09.07.2020 06:00:00 2,4 0,1 28 15 39 21 WNW
09.07.2020 05:00:00 1,5 0,8 27 15 33 18 W
09.07.2020 04:00:00 0,9 0,5 24 13 36 19 W
09.07.2020 03:00:00 1,0 0,3 32 17 42 23 W
09.07.2020 02:00:00 1,3 1,0 20 11 33 18 WSW
09.07.2020 01:00:00 1,7 1,0 24 13 32 17 W
09.07.2020 00:00:00 1,7 0,8 21 12 24 13 WSW
08.07.2020 23:00:00 2,8 0,5 14 8 23 13 W
08.07.2020 22:00:00 4,0 1,2 17 9 29 15 W
08.07.2020 21:00:00 5,2 1,3 21 11 31 17 W
08.07.2020 20:00:00 5,9 1,6 24 13 32 17 WNW
08.07.2020 19:00:00 5,7 1,6 26 14 36 19 W
08.07.2020 18:00:00 7,6 1,2 27 15 35 19 W
08.07.2020 17:00:00 8,0 0,9 23 12 34 18 W
08.07.2020 16:00:00 8,3 0,0 26 14 39 21 W
08.07.2020 15:00:00 7,7 -0,8 20 11 35 19 W
08.07.2020 14:00:00 7,1 -0,6 25 14 36 19 W
08.07.2020 13:00:00 6,2 -0,3 29 15 42 23 W
08.07.2020 12:00:00 6,5 0,4 26 14 37 20 W
08.07.2020 11:00:00 5,6 -0,5 18 10 29 16 W
08.07.2020 10:00:00 4,5 -0,1 16 8 22 12 W
08.07.2020 09:00:00 4,4 0,4 10 6 21 12 W
08.07.2020 08:00:00 3,6 0,8 12 7 19 10 NNW
08.07.2020 07:00:00 2,7 1,2 13 7 18 10 NNW
08.07.2020 06:00:00 1,9 1,2 14 8 21 12 N
08.07.2020 05:00:00 1,3 1,0 15 8 23 12 NNW
08.07.2020 04:00:00 1,9 0,6 13 7 27 14 NW
08.07.2020 03:00:00 1,7 1,1 18 10 27 15 NNW
08.07.2020 02:00:00 1,9 1,0 19 11 30 16 NNW
08.07.2020 01:00:00 1,6 1,3 18 10 28 15 NNW
08.07.2020 00:00:00 2,4 1,2 16 9 24 13 NNW
07.07.2020 23:00:00 2,6 1,6 19 10 28 15 NNW
07.07.2020 22:00:00 3,5 1,5 19 11 31 17 NNW
07.07.2020 21:00:00 4,4 1,6 24 13 34 18 NW
07.07.2020 20:00:00 5,0 1,7 23 12 33 18 NW
07.07.2020 19:00:00 5,0 2,4 24 13 34 18 WNW
07.07.2020 18:00:00 6,2 2,3 26 14 38 21 WNW
07.07.2020 17:00:00 7,1 2,0 29 16 39 21 WNW
07.07.2020 16:00:00 7,7 1,5 29 16 42 23 W
07.07.2020 15:00:00 6,3 1,4 28 15 40 21 WNW
07.07.2020 14:00:00 7,4 2,1 31 17 40 22 WNW
07.07.2020 13:00:00 6,0 0,9 19 11 39 21 NW
07.07.2020 12:00:00 6,6 1,1 28 15 36 19 W
07.07.2020 11:00:00 5,6 1,1 23 13 35 19 NW
07.07.2020 10:00:00 4,9 0,7 24 13 34 19 N
07.07.2020 09:00:00 3,7 -0,5 28 15 40 22 NNW
07.07.2020 08:00:00 3,6 -0,4 33 18 51 28 NNW
07.07.2020 07:00:00 2,6 -0,7 36 20 49 27 NNW
07.07.2020 06:00:00 2,4 -0,2 16 9 32 17 NW
07.07.2020 05:00:00 1,9 0,4 14 8 34 19 NNW
07.07.2020 04:00:00 1,9 1,0 22 12 34 18 NNW
07.07.2020 03:00:00 2,7 1,4 15 8 30 16 NNW
07.07.2020 02:00:00 3,1 1,5 22 12 43 23 WNW
07.07.2020 01:00:00 4,2 1,6 24 13 31 17 WNW
07.07.2020 00:00:00 4,7 1,9 22 12 34 18 NW
06.07.2020 23:00:00 6,0 2,3 26 14 34 18 WNW
06.07.2020 22:00:00 7,2 2,5 25 14 41 22 NW
06.07.2020 21:00:00 7,4 2,3 29 16 41 22 NW
06.07.2020 20:00:00 8,5 2,7 30 16 40 21 NW
06.07.2020 19:00:00 8,3 1,4 33 18 42 23 NNW
06.07.2020 18:00:00 8,6 1,0 28 15 39 21 N
06.07.2020 17:00:00 7,8 1,2 33 18 42 23 NNW
06.07.2020 16:00:00 8,3 0,3 30 16 44 24 NNE
06.07.2020 15:00:00 8,1 0,8 27 15 44 24 NE
06.07.2020 14:00:00 7,5 0,5 36 19 54 29 NNE
06.07.2020 13:00:00 7,4 -0,3 37 20 47 25 NE
06.07.2020 12:00:00 6,8 0,7 34 19 45 24 NNE
06.07.2020 11:00:00 5,8 0,9 34 18 55 30 NE
06.07.2020 10:00:00 5,6 1,0 42 23 64 35 ENE
06.07.2020 09:00:00 5,1 1,0 44 24 56 30 ENE
06.07.2020 08:00:00 5,0 1,3 43 23 58 31 ENE
06.07.2020 07:00:00 4,8 1,5 40 21 48 26 E
06.07.2020 06:00:00 4,7 1,5 24 13 39 21 ENE
06.07.2020 05:00:00 4,8 1,8 26 14 33 18 ENE
06.07.2020 04:00:00 5,1 1,6 21 11 32 17 ENE
06.07.2020 03:00:00 5,2 1,7 19 11 33 18 E
06.07.2020 02:00:00 5,2 0,8 21 12 26 14 E
06.07.2020 01:00:00 6,2 -0,1 14 7 21 12 ENE
06.07.2020 00:00:00 6,5 1,4 19 11 24 13 SE
05.07.2020 23:00:00 7,2 -1,5 19 10 36 20 E
05.07.2020 22:00:00 7,9 -1,4 29 16 37 20 E
05.07.2020 21:00:00 8,5 -1,6 24 13 42 23 ESE
05.07.2020 20:00:00 9,3 -3,6 29 16 38 20 ESE
05.07.2020 19:00:00 9,8 -1,6 28 15 36 20 SE
05.07.2020 18:00:00 10,2 -3,9 31 17 37 20 SE
05.07.2020 17:00:00 10,8 -3,3 29 16 35 19 SE
05.07.2020 16:00:00 10,6 -5,0 29 16 36 19 SSE
05.07.2020 15:00:00 10,4 -6,4 23 12 34 18 SE
05.07.2020 14:00:00 9,4 -6,9 14 8 22 12 SE
05.07.2020 13:00:00 9,5 -3,1 11 6 25 14 ESE
05.07.2020 12:00:00 8,7 -2,6 17 9 27 14 SSW
05.07.2020 11:00:00 7,4 -2,6 16 9 27 14 S
05.07.2020 10:00:00 5,8 -4,1 11 6 16 9 SSW
05.07.2020 09:00:00 5,2 -1,3 6 4 16 9 S
05.07.2020 08:00:00 3,6 -0,2 12 7 17 9 NE
05.07.2020 07:00:00 2,6 -0,2 11 6 15 8 NNE
05.07.2020 06:00:00 1,5 -0,8 11 6 16 9 NE
05.07.2020 05:00:00 0,2 -1,5 14 8 24 13 ENE
05.07.2020 04:00:00 0,6 -2,5 16 9 29 16 N
05.07.2020 03:00:00 1,6 -3,7 13 7 22 12 WNW
05.07.2020 02:00:00 1,4 -3,5 20 11 26 14 WNW
05.07.2020 01:00:00 2,0 -3,3 14 8 31 17 WNW
05.07.2020 00:00:00 1,9 -2,6 23 13 34 18 W
04.07.2020 23:00:00 3,0 -2,5 21 12 41 22 WNW
04.07.2020 22:00:00 3,7 -1,5 36 19 48 26 NW
04.07.2020 21:00:00 5,0 -3,1 36 19 50 27 NW
04.07.2020 20:00:00 6,5 -2,1 39 21 56 30 NW
04.07.2020 19:00:00 7,1 -3,5 42 23 57 31 NW
04.07.2020 18:00:00 7,3 -3,0 36 19 53 29 NW
04.07.2020 17:00:00 6,9 -1,8 38 20 55 30 NW
04.07.2020 16:00:00 7,0 -3,3 39 21 55 30 NNW
04.07.2020 15:00:00 7,7 -3,5 40 22 55 30 NW
04.07.2020 14:00:00 7,3 -1,1 35 19 50 27 NW
04.07.2020 13:00:00 6,7 -0,3 37 20 47 26 NW
04.07.2020 12:00:00 6,3 -1,4 32 17 44 24 N
04.07.2020 11:00:00 5,7 -0,4 31 17 40 21 N

tt = temperature
td = dewpoint
ff = wind speed
fx = gusts
dd = wind direction

Next stations